createdAt,value
2019-02-21T00:01:37.237Z,7.30
2019-02-21T00:04:06.931Z,7.20
2019-02-21T00:06:36.528Z,7.10
2019-02-21T00:09:08.098Z,7.00
2019-02-21T00:11:37.452Z,7.10
2019-02-21T00:14:06.759Z,7.10
2019-02-21T00:16:36.146Z,7.00
2019-02-21T00:19:05.803Z,7.00
2019-02-21T00:21:35.399Z,7.10
2019-02-21T00:24:04.762Z,7.00
2019-02-21T00:26:34.094Z,7.10
2019-02-21T00:29:03.461Z,7.10
2019-02-21T00:31:33.140Z,7.00
2019-02-21T00:34:02.442Z,7.00
2019-02-21T00:36:31.753Z,7.00
2019-02-21T00:39:01.400Z,6.90
2019-02-21T00:41:31.030Z,6.90
2019-02-21T00:44:00.630Z,6.90
2019-02-21T00:46:30.006Z,6.90
2019-02-21T00:48:59.295Z,6.80
2019-02-21T00:51:28.940Z,6.80
2019-02-21T00:53:58.296Z,6.80
2019-02-21T00:56:27.856Z,6.80
2019-02-21T00:59:00.749Z,6.90
2019-02-21T01:01:30.137Z,6.90
2019-02-21T01:03:59.519Z,6.90
2019-02-21T01:06:29.158Z,6.90
2019-02-21T01:08:58.553Z,6.70
2019-02-21T01:11:27.895Z,6.70
2019-02-21T01:13:57.179Z,6.80
2019-02-21T01:16:26.546Z,6.80
2019-02-21T01:18:55.858Z,6.80
2019-02-21T01:21:25.164Z,6.80
2019-02-21T01:23:54.532Z,6.80
2019-02-21T01:26:23.829Z,6.70
2019-02-21T01:28:53.155Z,6.70
2019-02-21T01:31:22.524Z,6.60
2019-02-21T01:33:51.878Z,6.60
2019-02-21T01:36:21.459Z,6.60
2019-02-21T01:38:50.823Z,6.50
2019-02-21T01:41:20.200Z,6.50
2019-02-21T01:43:49.517Z,6.40
2019-02-21T01:46:18.904Z,6.50
2019-02-21T01:48:48.292Z,6.50
2019-02-21T01:51:17.882Z,6.50
2019-02-21T01:53:47.304Z,6.50
2019-02-21T01:56:16.629Z,6.60
2019-02-21T01:58:45.945Z,6.70
2019-02-21T02:01:15.317Z,6.70
2019-02-21T02:03:44.637Z,6.80
2019-02-21T02:06:14.303Z,6.80
2019-02-21T02:08:43.700Z,6.70
2019-02-21T02:11:13.354Z,6.70
2019-02-21T02:13:42.918Z,6.80
2019-02-21T02:16:12.300Z,6.80
2019-02-21T02:18:41.622Z,6.80
2019-02-21T02:21:11.225Z,6.90
2019-02-21T02:23:40.632Z,6.90
2019-02-21T02:26:09.945Z,6.90
2019-02-21T02:28:39.250Z,6.90
2019-02-21T02:31:21.587Z,6.90
2019-02-21T02:33:41.101Z,6.90
2019-02-21T02:36:10.406Z,6.90
2019-02-21T02:38:40.006Z,6.90
2019-02-21T02:41:09.388Z,6.90
2019-02-21T02:43:38.694Z,6.90
2019-02-21T02:46:08.080Z,6.90
2019-02-21T02:48:37.392Z,6.90
2019-02-21T02:51:06.701Z,7.00
2019-02-21T02:53:36.080Z,7.00
2019-02-21T02:56:05.418Z,7.00
2019-02-21T02:58:34.747Z,7.00
2019-02-21T03:01:04.247Z,7.00
2019-02-21T03:03:36.239Z,7.00
2019-02-21T03:06:05.716Z,7.00
2019-02-21T03:08:35.083Z,7.00
2019-02-21T03:11:04.414Z,7.00
2019-02-21T03:13:33.760Z,7.00
2019-02-21T03:16:03.409Z,7.00
2019-02-21T03:18:32.713Z,7.00
2019-02-21T03:21:02.015Z,7.00
2019-02-21T03:23:31.462Z,7.00
2019-02-21T03:26:00.834Z,7.00
2019-02-21T03:28:30.110Z,7.10
2019-02-21T03:30:59.923Z,7.10
2019-02-21T03:33:29.226Z,7.10
2019-02-21T03:35:58.565Z,7.20
2019-02-21T03:38:27.931Z,7.20
2019-02-21T03:40:57.326Z,7.20
2019-02-21T03:43:26.929Z,7.20
2019-02-21T03:45:56.286Z,7.10
2019-02-21T03:48:25.593Z,7.20
2019-02-21T03:50:54.932Z,7.10
2019-02-21T03:53:24.365Z,7.10
2019-02-21T03:55:54.037Z,7.10
2019-02-21T03:58:23.347Z,7.10
2019-02-21T04:00:52.778Z,7.10
2019-02-21T04:03:22.132Z,7.10
2019-02-21T04:05:51.443Z,7.00
2019-02-21T04:08:20.847Z,7.00
2019-02-21T04:10:50.159Z,7.00
2019-02-21T04:13:19.769Z,7.00
2019-02-21T04:15:49.199Z,7.00
2019-02-21T04:18:18.909Z,7.00
2019-02-21T04:20:48.246Z,7.00
2019-02-21T04:23:17.605Z,7.10
2019-02-21T04:25:46.945Z,7.10
2019-02-21T04:28:16.314Z,7.00
2019-02-21T04:30:45.679Z,6.90
2019-02-21T04:33:14.977Z,6.90
2019-02-21T04:35:44.295Z,6.90
2019-02-21T04:38:14.023Z,6.90
2019-02-21T04:40:43.323Z,6.90
2019-02-21T04:43:15.721Z,6.90
2019-02-21T04:45:45.105Z,6.80
2019-02-21T04:48:14.416Z,6.90
2019-02-21T04:50:43.733Z,6.90
2019-02-21T04:53:13.320Z,6.90
2019-02-21T04:55:42.622Z,7.00
2019-02-21T04:58:11.927Z,6.90
2019-02-21T05:00:41.561Z,6.90
2019-02-21T05:03:10.902Z,6.90
2019-02-21T05:05:40.236Z,6.90
2019-02-21T05:08:09.609Z,6.80
2019-02-21T05:10:38.906Z,6.80
2019-02-21T05:13:08.516Z,6.70
2019-02-21T05:15:37.853Z,6.70
2019-02-21T05:18:07.168Z,6.80
2019-02-21T05:20:36.513Z,6.80
2019-02-21T05:23:05.926Z,6.70
2019-02-21T05:25:35.519Z,6.70
2019-02-21T05:28:23.501Z,6.70
2019-02-21T05:30:56.896Z,6.60
2019-02-21T05:33:36.641Z,6.70
2019-02-21T05:36:07.924Z,6.60
2019-02-21T05:38:39.211Z,6.50
2019-02-21T05:41:13.170Z,6.50
2019-02-21T05:43:44.104Z,6.50
2019-02-21T05:46:15.048Z,6.50
2019-02-21T05:48:48.433Z,6.50
2019-02-21T05:51:22.358Z,6.50
2019-02-21T05:53:56.444Z,6.40
2019-02-21T05:56:30.142Z,6.40
2019-02-21T05:59:01.172Z,6.30
2019-02-21T06:01:44.005Z,6.30
2019-02-21T06:04:27.210Z,6.30
2019-02-21T06:07:14.575Z,6.30
2019-02-21T06:09:48.464Z,6.30
2019-02-21T06:12:19.751Z,6.20
2019-02-21T06:14:53.363Z,6.20
2019-02-21T06:17:27.074Z,6.30
2019-02-21T06:20:04.344Z,6.30
2019-02-21T06:22:35.365Z,6.30
2019-02-21T06:25:06.669Z,6.30
2019-02-21T06:27:38.202Z,6.30
2019-02-21T06:30:28.410Z,6.30
2019-02-21T06:33:05.112Z,6.30
2019-02-21T06:35:28.780Z,6.40
2019-02-21T06:37:58.129Z,6.40
2019-02-21T06:40:27.498Z,6.40
2019-02-21T06:42:56.794Z,6.40
2019-02-21T06:45:26.418Z,6.40
2019-02-21T06:47:56.019Z,6.40
2019-02-21T06:50:27.044Z,6.40
2019-02-21T06:52:56.434Z,6.30
2019-02-21T06:55:26.079Z,6.30
2019-02-21T06:57:55.686Z,6.30
2019-02-21T07:00:25.052Z,6.30
2019-02-21T07:02:54.706Z,6.40
2019-02-21T07:05:24.015Z,6.40
2019-02-21T07:07:53.415Z,6.50
2019-02-21T07:10:22.730Z,6.50
2019-02-21T07:12:52.042Z,6.60
2019-02-21T07:15:21.742Z,6.60
2019-02-21T07:17:51.084Z,6.70
2019-02-21T07:20:20.406Z,6.80
2019-02-21T07:22:50.146Z,6.80
2019-02-21T07:25:23.788Z,6.70
2019-02-21T07:27:53.101Z,6.80
2019-02-21T07:30:23.270Z,6.90
2019-02-21T07:32:52.741Z,6.90
2019-02-21T07:35:22.066Z,6.90
2019-02-21T07:37:51.672Z,6.90
2019-02-21T07:40:20.981Z,6.90
2019-02-21T07:42:50.555Z,6.90
2019-02-21T07:45:19.954Z,7.00
2019-02-21T07:47:49.257Z,7.10
2019-02-21T07:50:18.596Z,7.10
2019-02-21T07:52:48.277Z,7.10
2019-02-21T07:55:17.582Z,7.10
2019-02-21T07:57:46.931Z,7.20
2019-02-21T08:00:16.592Z,7.20
2019-02-21T08:02:46.209Z,7.30
2019-02-21T08:05:15.654Z,7.40
2019-02-21T08:07:45.036Z,7.40
2019-02-21T08:10:14.341Z,7.40
2019-02-21T08:12:44.017Z,7.50
2019-02-21T08:15:14.286Z,7.50
2019-02-21T08:17:43.617Z,7.60
2019-02-21T08:20:13.597Z,7.60
2019-02-21T08:22:43.004Z,7.70
2019-02-21T08:25:12.335Z,7.70
2019-02-21T08:27:42.609Z,7.80
2019-02-21T08:30:16.207Z,7.80
2019-02-21T08:33:03.338Z,7.90
2019-02-21T08:35:33.110Z,7.80
2019-02-21T08:38:02.502Z,7.90
2019-02-21T08:40:31.810Z,7.90
2019-02-21T08:43:03.950Z,7.90
2019-02-21T08:45:32.273Z,7.90
2019-02-21T08:48:01.856Z,8.10
2019-02-21T08:50:31.201Z,8.20
2019-02-21T08:53:01.104Z,8.20
2019-02-21T08:55:30.681Z,8.20
2019-02-21T08:58:00.059Z,8.30
2019-02-21T09:00:31.469Z,8.40
2019-02-21T09:03:00.500Z,8.40
2019-02-21T09:05:29.876Z,8.50
2019-02-21T09:07:59.215Z,8.50
2019-02-21T09:10:28.594Z,8.60
2019-02-21T09:12:57.958Z,8.60
2019-02-21T09:15:27.317Z,8.70
2019-02-21T09:17:56.946Z,8.80
2019-02-21T09:20:26.652Z,8.80
2019-02-21T09:22:55.965Z,8.90
2019-02-21T09:25:25.544Z,8.90
2019-02-21T09:27:54.999Z,9.00
2019-02-21T09:30:24.286Z,9.10
2019-02-21T09:32:53.593Z,9.20
2019-02-21T09:35:23.214Z,9.40
2019-02-21T09:37:52.542Z,9.50
2019-02-21T09:40:21.874Z,9.50
2019-02-21T09:42:52.931Z,9.60
2019-02-21T09:45:22.270Z,9.60
2019-02-21T09:47:51.637Z,9.70
2019-02-21T09:50:20.972Z,9.70
2019-02-21T09:52:50.273Z,9.70
2019-02-21T09:55:19.619Z,9.70
2019-02-21T09:57:48.992Z,9.60
2019-02-21T10:00:22.526Z,9.60
2019-02-21T10:02:55.593Z,9.60
2019-02-21T10:05:23.223Z,9.60
2019-02-21T10:07:52.536Z,9.60
2019-02-21T10:10:22.617Z,9.60
2019-02-21T10:12:52.008Z,9.60
2019-02-21T10:15:21.405Z,9.60
2019-02-21T10:17:51.044Z,9.60
2019-02-21T10:20:23.723Z,9.70
2019-02-21T10:22:53.008Z,9.70
2019-02-21T10:25:26.398Z,9.70
2019-02-21T10:27:58.814Z,9.60
2019-02-21T10:30:28.261Z,9.70
2019-02-21T10:32:57.574Z,9.70
2019-02-21T10:35:28.471Z,9.70
2019-02-21T10:37:58.095Z,9.80
2019-02-21T10:40:27.398Z,9.80
2019-02-21T10:42:56.826Z,9.90
2019-02-21T10:45:26.203Z,10.00
2019-02-21T10:47:55.506Z,10.10
2019-02-21T10:50:25.216Z,10.20
2019-02-21T10:52:54.814Z,10.40
2019-02-21T10:55:24.417Z,10.30
2019-02-21T10:57:53.833Z,10.30
2019-02-21T11:00:29.866Z,10.20
2019-02-21T11:02:59.528Z,10.20
2019-02-21T11:05:28.837Z,10.40
2019-02-21T11:07:58.176Z,10.50
2019-02-21T11:10:31.162Z,10.70
2019-02-21T11:13:00.473Z,10.80
2019-02-21T11:15:30.032Z,11.10
2019-02-21T11:17:59.704Z,11.20
2019-02-21T11:20:29.028Z,11.30
2019-02-21T11:22:58.344Z,11.30
2019-02-21T11:25:28.016Z,11.30
2019-02-21T11:27:57.362Z,11.30
2019-02-21T11:30:26.765Z,11.20
2019-02-21T11:32:56.136Z,11.20
2019-02-21T11:35:25.460Z,11.30
2019-02-21T11:37:54.810Z,11.30
2019-02-21T11:40:24.516Z,11.40
2019-02-21T11:42:54.140Z,11.40
2019-02-21T11:45:23.453Z,11.40
2019-02-21T11:47:53.130Z,11.40
2019-02-21T11:50:22.749Z,11.40
2019-02-21T11:52:52.150Z,11.40
2019-02-21T11:55:26.602Z,11.40
2019-02-21T11:57:55.938Z,11.40
2019-02-21T12:00:33.296Z,11.40
2019-02-21T12:03:02.619Z,11.40
2019-02-21T12:05:32.408Z,11.30
2019-02-21T12:08:01.792Z,11.30
2019-02-21T12:10:31.405Z,11.30
2019-02-21T12:13:00.722Z,11.30
2019-02-21T12:15:30.209Z,11.30
2019-02-21T12:17:59.602Z,11.30
2019-02-21T12:20:29.230Z,11.40
2019-02-21T12:22:58.601Z,11.40
2019-02-21T12:25:27.958Z,11.30
2019-02-21T12:27:57.621Z,11.30
2019-02-21T12:30:26.990Z,11.30
2019-02-21T12:32:59.044Z,11.30
2019-02-21T12:35:29.952Z,11.20
2019-02-21T12:37:59.507Z,11.10
2019-02-21T12:40:28.836Z,10.90
2019-02-21T12:42:58.158Z,10.90
2019-02-21T12:45:30.078Z,10.80
2019-02-21T12:47:59.039Z,10.50
2019-02-21T12:50:28.427Z,10.50
2019-02-21T12:52:58.154Z,10.50
2019-02-21T12:55:31.446Z,10.60
2019-02-21T12:57:58.544Z,10.80
2019-02-21T13:00:27.905Z,11.00
2019-02-21T13:02:57.227Z,11.10
2019-02-21T13:05:26.578Z,11.20
2019-02-21T13:07:55.971Z,11.40
2019-02-21T13:10:25.751Z,11.50
2019-02-21T13:12:55.080Z,11.50
2019-02-21T13:15:24.460Z,11.50
2019-02-21T13:17:54.053Z,11.50
2019-02-21T13:20:23.393Z,11.50
2019-02-21T13:22:52.799Z,11.30
2019-02-21T13:25:22.137Z,11.30
2019-02-21T13:27:51.457Z,11.30
2019-02-21T13:30:20.930Z,11.30
2019-02-21T13:32:50.314Z,11.40
2019-02-21T13:35:19.637Z,11.30
2019-02-21T13:37:49.276Z,11.40
2019-02-21T13:40:21.226Z,11.40
2019-02-21T13:42:50.358Z,11.50
2019-02-21T13:45:20.050Z,11.60
2019-02-21T13:47:49.439Z,11.60
2019-02-21T13:50:23.706Z,11.70
2019-02-21T13:52:52.103Z,11.80
2019-02-21T13:55:21.429Z,11.70
2019-02-21T13:57:50.830Z,11.70
2019-02-21T14:00:24.819Z,11.70
2019-02-21T14:02:54.156Z,11.70
2019-02-21T14:05:23.505Z,11.90
2019-02-21T14:07:52.887Z,12.00
2019-02-21T14:10:22.205Z,12.10
2019-02-21T14:12:54.200Z,12.20
2019-02-21T14:15:29.453Z,12.30
2019-02-21T14:17:58.830Z,12.40
2019-02-21T14:20:28.463Z,12.40
2019-02-21T14:22:58.071Z,12.30
2019-02-21T14:25:28.313Z,12.30
2019-02-21T14:27:58.436Z,12.30
2019-02-21T14:30:28.139Z,12.30
2019-02-21T14:32:57.443Z,12.20
2019-02-21T14:35:26.817Z,12.20
2019-02-21T14:37:56.211Z,12.30
2019-02-21T14:40:25.542Z,12.30
2019-02-21T14:42:54.856Z,12.40
2019-02-21T14:45:26.483Z,12.40
2019-02-21T14:47:56.205Z,12.40
2019-02-21T14:50:25.520Z,12.40
2019-02-21T14:52:55.026Z,12.40
2019-02-21T14:55:24.352Z,12.40
2019-02-21T14:57:53.684Z,12.50
2019-02-21T15:00:29.059Z,12.50
2019-02-21T15:02:58.387Z,12.40
2019-02-21T15:05:27.700Z,12.30
2019-02-21T15:07:57.144Z,12.30
2019-02-21T15:10:26.478Z,12.40
2019-02-21T15:12:56.073Z,12.40
2019-02-21T15:15:27.331Z,12.40
2019-02-21T15:18:06.879Z,12.40
2019-02-21T15:20:36.194Z,12.40
2019-02-21T15:22:59.334Z,12.50
2019-02-21T15:25:28.907Z,12.50
2019-02-21T15:27:58.519Z,12.40
2019-02-21T15:30:28.434Z,12.40
2019-02-21T15:32:57.757Z,12.40
2019-02-21T15:35:27.080Z,12.30
2019-02-21T15:37:56.753Z,12.30
2019-02-21T15:40:26.073Z,12.30
2019-02-21T15:42:55.441Z,12.30
2019-02-21T15:45:28.691Z,12.20
2019-02-21T15:47:58.397Z,12.20
2019-02-21T15:50:27.696Z,12.20
2019-02-21T15:52:57.819Z,12.20
2019-02-21T15:55:27.193Z,12.20
2019-02-21T15:58:03.844Z,12.20
2019-02-21T16:00:27.666Z,12.20
2019-02-21T16:02:56.985Z,12.20
2019-02-21T16:05:26.409Z,12.20
2019-02-21T16:07:56.174Z,12.10
2019-02-21T16:10:29.958Z,12.10
2019-02-21T16:12:59.623Z,12.10
2019-02-21T16:15:29.436Z,12.10
2019-02-21T16:17:58.767Z,12.10
2019-02-21T16:20:28.115Z,12.10
2019-02-21T16:22:57.499Z,12.00
2019-02-21T16:25:32.192Z,12.00
2019-02-21T16:28:01.524Z,12.00
2019-02-21T16:30:30.905Z,12.00
2019-02-21T16:33:00.266Z,11.90
2019-02-21T16:35:29.879Z,11.90
2019-02-21T16:38:02.181Z,11.90
2019-02-21T16:40:31.221Z,11.90
2019-02-21T16:43:00.531Z,11.90
2019-02-21T16:45:42.434Z,11.80
2019-02-21T16:48:00.995Z,11.80
2019-02-21T16:50:30.499Z,11.70
2019-02-21T16:52:59.869Z,11.60
2019-02-21T16:55:29.251Z,11.50
2019-02-21T16:57:58.581Z,11.40
2019-02-21T17:00:38.922Z,11.30
2019-02-21T17:02:59.378Z,11.30
2019-02-21T17:05:28.769Z,11.30
2019-02-21T17:07:58.171Z,11.20
2019-02-21T17:10:27.529Z,11.20
2019-02-21T17:12:56.869Z,11.10
2019-02-21T17:15:26.241Z,11.10
2019-02-21T17:17:55.563Z,11.10
2019-02-21T17:20:25.717Z,11.00
2019-02-21T17:22:55.144Z,11.00
2019-02-21T17:25:24.470Z,11.00
2019-02-21T17:27:53.783Z,11.00
2019-02-21T17:30:23.662Z,11.00
2019-02-21T17:32:52.975Z,11.00
2019-02-21T17:35:22.310Z,11.00
2019-02-21T17:37:52.020Z,11.10
2019-02-21T17:40:26.360Z,11.00
2019-02-21T17:42:55.722Z,11.00
2019-02-21T17:45:25.442Z,11.00
2019-02-21T17:47:54.765Z,11.00
2019-02-21T17:50:24.349Z,11.00
2019-02-21T17:52:53.730Z,11.00
2019-02-21T17:55:23.057Z,11.00
2019-02-21T17:57:52.370Z,11.00
2019-02-21T18:00:37.867Z,11.00
2019-02-21T18:03:07.170Z,11.00
2019-02-21T18:05:36.488Z,11.00
2019-02-21T18:08:06.130Z,11.00
2019-02-21T18:10:35.447Z,11.00
2019-02-21T18:13:04.834Z,10.90
2019-02-21T18:15:34.456Z,11.00
2019-02-21T18:18:03.883Z,11.00
2019-02-21T18:20:33.473Z,11.00
2019-02-21T18:23:02.853Z,10.90
2019-02-21T18:25:46.105Z,11.00
2019-02-21T18:28:15.512Z,10.90
2019-02-21T18:30:45.149Z,10.90
2019-02-21T18:33:14.421Z,10.90
2019-02-21T18:35:43.918Z,10.90
2019-02-21T18:38:13.273Z,10.90
2019-02-21T18:40:42.603Z,10.90
2019-02-21T18:43:12.001Z,10.90
2019-02-21T18:45:41.381Z,10.90
2019-02-21T18:48:10.729Z,10.90
2019-02-21T18:50:40.101Z,10.90
2019-02-21T18:53:09.421Z,10.90
2019-02-21T18:55:38.745Z,10.90
2019-02-21T18:58:08.449Z,10.90
2019-02-21T19:00:37.818Z,10.90
2019-02-21T19:03:07.248Z,10.80
2019-02-21T19:05:36.950Z,10.80
2019-02-21T19:08:06.350Z,10.80
2019-02-21T19:10:35.831Z,10.80
2019-02-21T19:13:07.634Z,10.80
2019-02-21T19:15:36.484Z,10.80
2019-02-21T19:18:08.994Z,10.80
2019-02-21T19:20:38.397Z,10.70
2019-02-21T19:23:07.708Z,10.80
2019-02-21T19:25:37.105Z,10.80
2019-02-21T19:28:06.508Z,10.80
2019-02-21T19:30:52.500Z,10.70
2019-02-21T19:33:24.762Z,10.80
2019-02-21T19:35:54.477Z,10.80
2019-02-21T19:38:23.800Z,10.70
2019-02-21T19:40:53.177Z,10.70
2019-02-21T19:43:22.765Z,10.80
2019-02-21T19:45:52.365Z,10.80
2019-02-21T19:48:21.803Z,10.80
2019-02-21T19:50:51.116Z,10.80
2019-02-21T19:53:20.775Z,10.80
2019-02-21T19:55:50.136Z,10.70
2019-02-21T19:58:19.447Z,10.60
2019-02-21T20:00:49.212Z,10.60
2019-02-21T20:03:18.681Z,10.60
2019-02-21T20:05:48.418Z,10.70
2019-02-21T20:08:21.499Z,10.60
2019-02-21T20:10:48.825Z,10.70
2019-02-21T20:13:18.247Z,10.70
2019-02-21T20:15:47.595Z,10.70
2019-02-21T20:18:16.968Z,10.70
2019-02-21T20:20:46.291Z,10.70
2019-02-21T20:23:15.976Z,10.70
2019-02-21T20:25:45.383Z,10.70
2019-02-21T20:28:14.736Z,10.70
2019-02-21T20:30:44.089Z,10.70
2019-02-21T20:33:13.597Z,10.60
2019-02-21T20:35:42.964Z,10.60
2019-02-21T20:38:12.286Z,10.60
2019-02-21T20:40:41.818Z,10.60
2019-02-21T20:43:11.225Z,10.60
2019-02-21T20:45:51.893Z,10.50
2019-02-21T20:48:12.112Z,10.50
2019-02-21T20:50:41.468Z,10.50
2019-02-21T20:53:10.795Z,10.50
2019-02-21T20:55:43.659Z,10.50
2019-02-21T20:58:11.819Z,10.50
2019-02-21T21:00:42.046Z,10.50
2019-02-21T21:03:11.414Z,10.50
2019-02-21T21:05:40.723Z,10.40
2019-02-21T21:08:10.458Z,10.50
2019-02-21T21:10:39.857Z,10.40
2019-02-21T21:13:09.171Z,10.50
2019-02-21T21:15:38.493Z,10.40
2019-02-21T21:18:07.863Z,10.50
2019-02-21T21:20:37.176Z,10.40
2019-02-21T21:23:06.487Z,10.40
2019-02-21T21:25:35.944Z,10.40
2019-02-21T21:28:05.399Z,10.30
2019-02-21T21:30:34.717Z,10.30
2019-02-21T21:33:04.085Z,10.30
2019-02-21T21:35:33.415Z,10.30
2019-02-21T21:38:03.057Z,10.30
2019-02-21T21:40:32.537Z,10.30
2019-02-21T21:43:01.863Z,10.30
2019-02-21T21:45:31.171Z,10.20
2019-02-21T21:48:00.562Z,10.20
2019-02-21T21:50:30.160Z,10.20
2019-02-21T21:52:59.474Z,10.10
2019-02-21T21:55:29.168Z,10.10
2019-02-21T21:57:58.489Z,10.10
2019-02-21T22:00:27.867Z,10.00
2019-02-21T22:02:57.476Z,10.00
2019-02-21T22:05:27.099Z,10.00
2019-02-21T22:07:56.703Z,10.00
2019-02-21T22:10:26.302Z,10.00
2019-02-21T22:12:55.629Z,10.00
2019-02-21T22:15:25.612Z,9.90
2019-02-21T22:17:55.235Z,9.90
2019-02-21T22:20:24.850Z,9.90
2019-02-21T22:22:54.223Z,9.90
2019-02-21T22:25:23.933Z,9.90
2019-02-21T22:27:53.179Z,9.80
2019-02-21T22:30:22.563Z,9.90
2019-02-21T22:32:52.239Z,9.90
2019-02-21T22:35:21.538Z,9.90
2019-02-21T22:37:50.951Z,9.90
2019-02-21T22:40:21.707Z,9.90
2019-02-21T22:42:51.335Z,9.90
2019-02-21T22:45:20.664Z,9.90
2019-02-21T22:47:50.321Z,9.90
2019-02-21T22:50:20.799Z,10.00
2019-02-21T22:52:50.112Z,10.00
2019-02-21T22:55:19.467Z,9.90
2019-02-21T22:57:48.768Z,9.90
2019-02-21T23:00:40.053Z,9.80
2019-02-21T23:03:12.053Z,9.80
2019-02-21T23:06:03.448Z,9.80
2019-02-21T23:08:44.005Z,9.70
2019-02-21T23:11:13.962Z,9.70
2019-02-21T23:13:43.657Z,9.70
2019-02-21T23:16:13.038Z,9.80
2019-02-21T23:18:42.433Z,9.70
2019-02-21T23:21:12.055Z,9.70
2019-02-21T23:23:41.369Z,9.70
2019-02-21T23:26:11.720Z,9.70
2019-02-21T23:28:41.408Z,9.70
2019-02-21T23:31:10.785Z,9.80
2019-02-21T23:33:58.176Z,9.70
2019-02-21T23:36:27.482Z,9.70
2019-02-21T23:38:56.791Z,9.60
2019-02-21T23:41:26.150Z,9.60
2019-02-21T23:43:55.496Z,9.70
2019-02-21T23:46:24.901Z,9.60
2019-02-21T23:48:54.277Z,9.60
2019-02-21T23:51:23.587Z,9.50
2019-02-21T23:54:02.729Z,9.50
2019-02-21T23:56:24.000Z,9.50
2019-02-21T23:58:53.316Z,9.50
